Etusivu
METAR-TAF:

METAR-TAF

Lentoasemat :

Stewart, Brittiläinen Kolumbia, Kanada

Leveyspiiri: 55-56N, Pituuspiiri: 129-59W, korkeus merenpinnasta: 7 m

Tämänhetkinen sää

Tämä raportti tehtiin 5 tuntia ja 39 minuuttia sitten, kello 01.00 UTC
Tuuli 7 kn lounaasta puuskistuen 15 kn:hen
Lämpötila 3°C
Kosteus 87%
Ilmanpaine 1001 hPa
Näkyvyys: 16.1 km
Hajanaisia pilviä 1200 ft:n korkeudessa
Hajonneita pilviä 2500 ft:n korkeudessa
Pilvistä 4000 ft:n korkeudessa
heikkoa sadetta

METAR: CZST 260100Z 22007G15KT 10SM -RA SCT012 BKN025 OVC040 03/01 A2957 RMK SC3SC3SC2 LAST STFD OBS/NEXT261500Z SLP015

Aika: 22:39 (06:39 UTC)


TAF: puuttuu

Säähavainnot ja -ennusteet yli 4000 lentoasemalta (METAR- ja TAF-raportit).

Käytössä olevat sääasemat on merkitty karttaan keltaisilla ja punaisilla pisteillä.

Aseta hiiri pisteen päälle nähdäksesi sääaseman nimen.

Klikkaa sitten nähdäksesi säähavainnot ja -ennusteet.

Kartan vaihtaminen: klikkaa mustalla rastilla varustettuja vihreitä pisteitä, niin voit zoomata sisään; viivalla varustettua vihreää pistettä, niin voit zoomata ulos tai vihreitä nuolia, niin pääset viereisille kartoille.


METAR-TAF: